Iracemapolis, Brazil
Current Conditions -  °F | °C
As of 1:00 AM on Saturday 20 Dec 2014 (Local Time) from SBKP Reporting Station
Thunderstorm Thunderstorm  
Wind Chill: 72°   Ceiling: 8000
Heat Index: 72°   Visibility: 6mi
Dew Point: 64°   Wind: 7mph
Humidity: 78%   Direction: 80°E
Pressure: NA   Gusts: NA
Location:  22.58°S, 47.52°W
Report Text: SBKP 200300Z 08006KT 9999 -TSRA SCT018 FEW056CB BKN080 22/18 Q1014
Loading
Personal Weather Stations






























Interactive Weather Map New forecast layout! Learn more

10-Day Weather Forecast

Advertisements
Track Severe Weather on mobile